ROTAER D-AMDT 23/20 Ver Mudanças

Estadual Arthur Siqueira ( SBBP ) / BRAGANÇA PAULISTA, SP 22 58 45S/046 32 15W
AD PUB VOA SÃO PAULO 3S UTC-3 VFR L21 , L26 893 (2930)

16 - L12 - ( 1200x30 ASPH 16/F/B/X/T L14 , L15 ) - L12 - 34

SBBS (SRPV-SP)
COM -
RÁDIO [5] 125.700 [1]
RDONAV -
VOR/DME BGC 116.2 2257.09S/04634.19W
CMB- [2] [3] PF TF
MET -

[4] [5]

AIS - [4] [5] [6]

RMK -

REGULAMENTOS PARA TRÁFEGO LOCAL
  1. Todas ACFT que pretendem realizar FLT TGL deverão efetuar COOR prévia com a RDO Bragança via tel (11) 4034-7612, LTD a cinco ACFT simultaneamente no circuito de TFC.
  2. OBS ACFT em voo de instrução próximo ao AD
INFORMAÇÃO ADICIONAL
  1. HR SER SR/2200. Demais HR O/R através do TEL: (11) 4034 -7610 (VOA São Paulo)
COMPL -
  • [1] LTD para raio 3NM FM centro AD SFC/4500FT AMSL
  • [2] (MON,TUE,WED,THU,FRI 1000-2200)
  • [3] (SAT,SUN 1000-2100)
  • [4] Autoatendimento
  • [5] (DLY 1015-2145)
  • [6] Para informações adicionais consultar a sala AIS SBGR TEL: (11) 2445-3185 e (11) 2445-3212.
TEMP (0)

Suplementos AIP (0)

NOTAM (1)

AGA

D1025/20 R D1001/20 04/07/2020 20:31
SER COMBUSTIVEL (AVGAS E QUEROSENE) NEG AVBL


Nascer/Por do Sol

09:47

20:34


METAR

051900Z VRB06KT 9999 FEW040 25/11 Q1020=

TAF

051600Z 0518/0606 27005KT CAVOK TX26/0518Z TN15/0605Z BECMG 0600/0602 10005KT RMK PGD=


Cartas (1)

VAC



Rotas Preferenciais (0)